Piatra Neamt, Romania
Current Conditions -  °F | °C
As of 3:00 AM on Friday 28 Nov 2014 (Local Time) from LRBC Reporting Station
Overcast Overcast  
Wind Chill: 21°   Ceiling: 1100
Heat Index: 28°   Visibility: 6mi
Dew Point: 25°   Wind: 7mph
Humidity: 86%   Direction: 170°S
Pressure: 30.27"   Gusts: NA
Location:  46.92°N, 26.33°E
Report Text: LRBC 280000Z 17006KT 9999 OVC011 M02/M04 Q1025
Loading
Personal Weather Stations






























Interactive Weather Map New forecast layout! Learn more

10-Day Weather Forecast

Advertisements
Track Severe Weather on mobile